Time;durP1;ratioP1;P1;durP2;ratioP2;P2;SDS_P1;SDS_P2;PMS_P1;PMS_P2;Temp;Humidity;BMP_temperature;BMP_pressure;BME280_temperature;BME280_humidity;BME280_pressure;Samples;Min_cycle;Max_cycle;Signal;HPM_P1;HPM_P2
2023/03/01 00:02:26;;;;;;;15.17;12.40;;;0.70;99.90;;;;;;5088817;28;20460;-68
2023/03/01 00:04:54;;;;;;;15.13;12.93;;;0.70;99.90;;;;;;5072356;28;20998;-67
2023/03/01 00:07:22;;;;;;;15.37;13.20;;;0.80;99.90;;;;;;5085272;28;21046;-68
2023/03/01 00:09:50;;;;;;;15.17;12.43;;;0.80;99.90;;;;;;5086397;28;21055;-67
2023/03/01 00:12:18;;;;;;;16.70;12.23;;;0.70;99.90;;;;;;5076992;28;20519;-68
2023/03/01 00:14:48;;;;;;;14.73;11.90;;;0.80;99.90;;;;;;5085372;28;20495;-67
2023/03/01 00:17:15;;;;;;;14.50;12.30;;;0.80;99.90;;;;;;5085788;28;20480;-67
2023/03/01 00:19:43;;;;;;;16.73;12.80;;;0.70;99.90;;;;;;5088293;28;20468;-67
2023/03/01 00:22:11;;;;;;;16.17;12.30;;;0.80;99.90;;;;;;5086131;28;20468;-67
2023/03/01 00:24:39;;;;;;;14.37;12.50;;;0.70;99.90;;;;;;5089157;28;20482;-67
2023/03/01 00:27:07;;;;;;;14.77;11.93;;;0.70;99.90;;;;;;5083822;28;20868;-67
2023/03/01 00:29:35;;;;;;;13.87;12.40;;;0.70;99.90;;;;;;5091527;28;20464;-67
2023/03/01 00:32:05;;;;;;;15.07;12.97;;;0.70;99.90;;;;;;5097260;28;20484;-67
2023/03/01 00:34:33;;;;;;;16.70;11.67;;;0.60;99.90;;;;;;5091650;28;20481;-67
2023/03/01 00:37:05;;;;;;;14.90;12.33;;;0.60;99.90;;;;;;5083202;27;20511;-67
2023/03/01 00:39:33;;;;;;;14.40;11.37;;;0.60;99.90;;;;;;5096757;27;20472;-67
2023/03/01 00:42:01;;;;;;;16.83;12.70;;;0.60;99.90;;;;;;5098590;27;20467;-67
2023/03/01 00:44:29;;;;;;;13.00;11.60;;;0.60;99.90;;;;;;5100769;28;20475;-68
2023/03/01 00:46:57;;;;;;;19.53;13.40;;;0.50;99.90;;;;;;5090204;27;20479;-67
2023/03/01 00:49:27;;;;;;;14.43;12.20;;;0.50;99.90;;;;;;5097436;27;20472;-68
2023/03/01 00:51:55;;;;;;;17.53;12.90;;;0.50;99.90;;;;;;5101163;28;20491;-68
2023/03/01 00:54:23;;;;;;;15.57;12.87;;;0.50;99.90;;;;;;5099263;27;20463;-68
2023/03/01 00:56:51;;;;;;;15.97;12.33;;;0.50;99.90;;;;;;5099666;27;20483;-67
2023/03/01 00:59:19;;;;;;;15.23;12.40;;;0.50;99.90;;;;;;5096390;28;20480;-67
2023/03/01 01:01:47;;;;;;;15.40;12.80;;;0.50;99.90;;;;;;5097194;28;20893;-67
2023/03/01 01:04:15;;;;;;;14.93;11.77;;;0.50;99.90;;;;;;5096570;28;20476;-67
2023/03/01 01:06:46;;;;;;;13.27;11.43;;;0.40;99.90;;;;;;5091658;28;20483;-68
2023/03/01 01:09:17;;;;;;;12.33;11.00;;;0.40;99.90;;;;;;5092316;27;20849;-68
2023/03/01 01:11:46;;;;;;;18.07;11.70;;;0.40;99.90;;;;;;5094113;28;20485;-67
2023/03/01 01:14:15;;;;;;;12.47;11.00;;;0.40;99.90;;;;;;5098949;28;21437;-67
2023/03/01 01:16:43;;;;;;;12.77;11.03;;;0.30;99.90;;;;;;5095920;28;20575;-68
2023/03/01 01:19:13;;;;;;;15.17;11.03;;;0.40;99.90;;;;;;5092518;28;21159;-68
2023/03/01 01:21:42;;;;;;;16.33;11.10;;;0.40;99.90;;;;;;5099700;28;20512;-68
2023/03/01 01:24:12;;;;;;;14.60;11.63;;;0.40;99.90;;;;;;5091185;28;20488;-68
2023/03/01 01:26:40;;;;;;;12.27;11.03;;;0.40;99.90;;;;;;5098204;27;20490;-68
2023/03/01 01:29:08;;;;;;;15.07;12.03;;;0.40;99.90;;;;;;5090460;27;20982;-67
2023/03/01 01:31:37;;;;;;;16.57;11.73;;;0.40;99.90;;;;;;5093847;28;20495;-67
2023/03/01 01:34:07;;;;;;;14.77;11.37;;;0.30;99.90;;;;;;5085505;28;20667;-67
2023/03/01 01:36:37;;;;;;;13.33;11.20;;;0.30;99.90;;;;;;5081885;27;20487;-68
2023/03/01 01:39:05;;;;;;;12.63;11.13;;;0.30;99.90;;;;;;5082924;27;20480;-69
2023/03/01 01:41:34;;;;;;;12.67;10.60;;;0.30;99.90;;;;;;5090086;28;20480;-67
2023/03/01 01:44:18;;;;;;;12.83;10.67;;;0.30;99.90;;;;;;5098801;28;20467;-67
2023/03/01 01:46:51;;;;;;;12.27;10.67;;;0.20;99.90;;;;;;5092116;27;20583;-67
2023/03/01 01:49:25;;;;;;;12.83;11.17;;;0.30;99.90;;;;;;5100797;28;20467;-68
2023/03/01 01:52:01;;;;;;;15.50;10.60;;;0.20;99.90;;;;;;5080054;28;20502;-67
2023/03/01 01:54:34;;;;;;;12.80;10.60;;;0.30;99.90;;;;;;5084180;28;20477;-68
2023/03/01 01:57:08;;;;;;;12.00;10.60;;;0.30;99.90;;;;;;5085369;28;20483;-68
2023/03/01 01:59:37;;;;;;;11.50;10.40;;;0.30;99.90;;;;;;5084630;28;20494;-68
2023/03/01 02:02:06;;;;;;;14.67;11.57;;;0.30;99.90;;;;;;5095915;27;20460;-68
2023/03/01 02:04:34;;;;;;;12.40;10.77;;;0.30;99.90;;;;;;5083867;28;20843;-69
2023/03/01 02:07:08;;;;;;;13.53;11.10;;;0.30;99.90;;;;;;5081358;28;20852;-68
2023/03/01 02:09:37;;;;;;;12.97;10.63;;;0.20;99.90;;;;;;5091417;28;20480;-67
2023/03/01 02:12:07;;;;;;;13.67;11.70;;;0.30;99.90;;;;;;5092082;28;20493;-67
2023/03/01 02:14:34;;;;;;;14.60;11.60;;;0.30;99.90;;;;;;5090851;27;20536;-67
2023/03/01 02:17:02;;;;;;;14.43;11.50;;;0.20;99.90;;;;;;5092020;28;20500;-68
2023/03/01 02:19:45;;;;;;;12.50;10.90;;;0.30;99.90;;;;;;5093358;28;20472;-68
2023/03/01 02:22:23;;;;;;;12.90;11.30;;;0.20;99.90;;;;;;5097104;28;20497;-68
2023/03/01 02:25:08;;;;;;;13.30;11.20;;;0.20;99.90;;;;;;5095739;27;20619;-69
2023/03/01 02:27:45;;;;;;;14.60;11.40;;;0.30;99.90;;;;;;5089586;27;21041;-69
2023/03/01 02:30:15;;;;;;;14.90;11.43;;;0.20;99.90;;;;;;5092423;28;20479;-67
2023/03/01 02:32:42;;;;;;;13.90;10.87;;;0.20;99.90;;;;;;5092704;28;20837;-69
2023/03/01 02:35:13;;;;;;;14.63;11.90;;;0.20;99.90;;;;;;5076212;27;20901;-67
2023/03/01 02:37:42;;;;;;;12.97;11.60;;;0.20;99.90;;;;;;5087740;28;20488;-67
2023/03/01 02:40:13;;;;;;;12.33;11.00;;;0.30;99.90;;;;;;5083976;28;20961;-68
2023/03/01 02:42:48;;;;;;;16.00;12.40;;;0.30;99.90;;;;;;5083524;28;20467;-68
2023/03/01 02:45:18;;;;;;;15.30;11.63;;;0.30;99.90;;;;;;5088102;27;20470;-68
2023/03/01 02:47:46;;;;;;;13.90;12.13;;;0.30;99.90;;;;;;5086658;27;20994;-68
2023/03/01 02:50:26;;;;;;;13.20;11.40;;;0.40;99.90;;;;;;5080352;27;21140;-68
2023/03/01 02:52:58;;;;;;;13.43;12.00;;;0.40;99.90;;;;;;5082960;28;20487;-67
2023/03/01 02:55:27;;;;;;;13.17;11.77;;;0.30;99.90;;;;;;5079102;28;20502;-67
2023/03/01 02:57:56;;;;;;;13.47;11.70;;;0.40;99.90;;;;;;5078773;28;20495;-67
2023/03/01 03:00:32;;;;;;;14.57;11.90;;;0.40;99.90;;;;;;5086182;28;20488;-68
2023/03/01 03:03:00;;;;;;;14.13;12.10;;;0.40;99.90;;;;;;5097415;28;20512;-68
2023/03/01 03:05:30;;;;;;;13.00;11.60;;;0.40;99.90;;;;;;5075976;27;20897;-68
2023/03/01 03:07:59;;;;;;;12.30;10.47;;;0.40;99.90;;;;;;5078496;28;20542;-67
2023/03/01 03:10:30;;;;;;;15.37;12.07;;;0.40;99.90;;;;;;5077474;28;20578;-68
2023/03/01 03:13:00;;;;;;;13.07;11.50;;;0.40;99.90;;;;;;5082324;28;20493;-68
2023/03/01 03:15:30;;;;;;;15.10;11.93;;;0.40;99.90;;;;;;5083517;28;20495;-69
2023/03/01 03:17:59;;;;;;;15.90;12.57;;;0.40;99.90;;;;;;5085261;28;20481;-68
2023/03/01 03:20:29;;;;;;;13.77;12.20;;;0.40;99.90;;;;;;5085297;27;20496;-68
2023/03/01 03:22:59;;;;;;;15.60;12.30;;;0.40;99.90;;;;;;5077576;27;20822;-68
2023/03/01 03:25:29;;;;;;;13.63;12.13;;;0.30;99.90;;;;;;5078092;28;20472;-68
2023/03/01 03:27:58;;;;;;;13.13;11.60;;;0.30;99.90;;;;;;5075003;28;20920;-68
2023/03/01 03:30:29;;;;;;;15.30;11.70;;;0.30;99.90;;;;;;5078871;28;20492;-68
2023/03/01 03:33:00;;;;;;;14.10;12.70;;;0.30;99.90;;;;;;5088751;28;20852;-68
2023/03/01 03:35:30;;;;;;;14.90;12.90;;;0.30;99.90;;;;;;5082428;28;20880;-68
2023/03/01 03:38:02;;;;;;;13.87;11.60;;;0.30;99.90;;;;;;5085147;27;20483;-67
2023/03/01 03:40:32;;;;;;;13.13;11.77;;;0.40;99.90;;;;;;5081599;28;20484;-68
2023/03/01 03:43:01;;;;;;;13.40;12.00;;;0.40;99.90;;;;;;5082819;27;20463;-67
2023/03/01 03:45:29;;;;;;;15.93;12.97;;;0.40;99.90;;;;;;5082059;27;20471;-68
2023/03/01 03:47:58;;;;;;;14.40;12.13;;;0.50;99.90;;;;;;5090935;28;20963;-67
2023/03/01 03:50:26;;;;;;;11.80;10.60;;;0.50;99.90;;;;;;5099552;28;20492;-66
2023/03/01 03:52:54;;;;;;;14.40;11.83;;;0.50;99.90;;;;;;5090969;28;20495;-67
2023/03/01 03:55:22;;;;;;;14.23;12.07;;;0.50;99.90;;;;;;5084679;28;21665;-67
2023/03/01 03:57:51;;;;;;;12.63;11.27;;;0.50;99.90;;;;;;5083391;28;20483;-66
2023/03/01 04:00:21;;;;;;;14.93;11.90;;;0.60;99.90;;;;;;5086410;28;20532;-67
2023/03/01 04:02:49;;;;;;;12.77;11.43;;;0.60;99.90;;;;;;5085955;28;20482;-67
2023/03/01 04:05:20;;;;;;;16.07;11.23;;;0.60;99.90;;;;;;5094395;28;20469;-67
2023/03/01 04:07:48;;;;;;;13.87;11.27;;;0.60;99.90;;;;;;5092257;28;21036;-68
2023/03/01 04:10:18;;;;;;;12.30;10.73;;;0.60;99.90;;;;;;5097209;28;20487;-67
2023/03/01 04:12:46;;;;;;;13.50;11.50;;;0.70;99.90;;;;;;5095936;28;20514;-66
2023/03/01 04:15:14;;;;;;;14.60;11.97;;;0.70;99.90;;;;;;5095024;28;20471;-68
2023/03/01 04:17:42;;;;;;;13.83;11.53;;;0.70;99.90;;;;;;5094771;28;21086;-66
2023/03/01 04:20:12;;;;;;;13.20;11.10;;;0.70;99.90;;;;;;5095042;28;20481;-66
2023/03/01 04:22:42;;;;;;;11.93;10.43;;;0.70;99.90;;;;;;5094188;28;20464;-66
2023/03/01 04:25:13;;;;;;;12.63;11.33;;;0.70;99.90;;;;;;5096856;28;21159;-66
2023/03/01 04:27:41;;;;;;;11.70;10.50;;;0.70;99.90;;;;;;5095829;28;20594;-66
2023/03/01 04:30:11;;;;;;;14.93;11.90;;;0.80;99.90;;;;;;5096012;28;20491;-66
2023/03/01 04:32:39;;;;;;;12.50;11.00;;;0.80;99.90;;;;;;5095615;28;20491;-66
2023/03/01 04:35:07;;;;;;;12.77;11.47;;;0.80;99.90;;;;;;5085651;28;20467;-66
2023/03/01 04:37:36;;;;;;;13.03;11.60;;;0.80;99.90;;;;;;5082653;28;21010;-65
2023/03/01 04:40:16;;;;;;;13.50;11.17;;;0.90;99.90;;;;;;5093938;28;20492;-68
2023/03/01 04:42:44;;;;;;;14.07;11.10;;;0.80;99.90;;;;;;5080161;27;21016;-66
2023/03/01 04:45:13;;;;;;;12.73;11.30;;;0.90;99.90;;;;;;5095565;28;20476;-68
2023/03/01 04:47:44;;;;;;;13.20;10.30;;;0.90;99.90;;;;;;5091779;28;20849;-66
2023/03/01 04:50:13;;;;;;;14.67;10.87;;;0.90;99.90;;;;;;5083290;27;20487;-66
2023/03/01 04:52:41;;;;;;;12.00;10.73;;;0.90;99.90;;;;;;5096297;28;20471;-67
2023/03/01 04:55:11;;;;;;;12.40;9.90;;;1.00;99.90;;;;;;5080599;28;21204;-67
2023/03/01 04:57:40;;;;;;;12.07;10.80;;;1.00;99.90;;;;;;5082391;28;20480;-67
2023/03/01 05:00:20;;;;;;;12.63;10.90;;;1.00;99.90;;;;;;5081222;28;20491;-69
2023/03/01 05:02:52;;;;;;;12.37;11.03;;;1.00;99.90;;;;;;5083299;27;20472;-67
2023/03/01 05:05:26;;;;;;;10.83;9.77;;;1.00;99.90;;;;;;5089259;27;21012;-68
2023/03/01 05:07:59;;;;;;;12.07;10.70;;;1.00;99.90;;;;;;5091639;28;20484;-66
2023/03/01 05:10:30;;;;;;;11.60;9.37;;;1.00;99.90;;;;;;5094977;28;20554;-66
2023/03/01 05:12:59;;;;;;;10.50;9.40;;;1.10;99.90;;;;;;5076445;28;21041;-67
2023/03/01 05:15:28;;;;;;;11.07;9.87;;;1.10;99.90;;;;;;5083243;28;20837;-67
2023/03/01 05:17:59;;;;;;;13.33;10.00;;;1.10;99.90;;;;;;5074535;28;20490;-67
2023/03/01 05:20:28;;;;;;;11.50;9.33;;;1.10;99.90;;;;;;5076171;28;20495;-66
2023/03/01 05:22:58;;;;;;;11.80;9.33;;;1.10;99.90;;;;;;5084961;28;20582;-68
2023/03/01 05:25:32;;;;;;;11.47;9.70;;;1.10;99.90;;;;;;5076672;28;20471;-67
2023/03/01 05:28:03;;;;;;;10.80;9.43;;;1.10;99.90;;;;;;5078454;27;20490;-67
2023/03/01 05:30:32;;;;;;;10.80;9.80;;;1.10;99.90;;;;;;5082426;27;20549;-67
2023/03/01 05:33:01;;;;;;;10.83;8.87;;;1.20;99.90;;;;;;5088323;28;20483;-67
2023/03/01 05:35:32;;;;;;;12.10;8.43;;;1.20;99.90;;;;;;5090906;28;20487;-67
2023/03/01 05:38:00;;;;;;;9.77;8.50;;;1.20;99.90;;;;;;5081785;28;20496;-67
2023/03/01 05:40:29;;;;;;;9.33;8.40;;;1.30;99.90;;;;;;5080630;28;21054;-67
2023/03/01 05:42:58;;;;;;;10.80;8.73;;;1.20;99.90;;;;;;5082180;27;20685;-67
2023/03/01 05:45:27;;;;;;;9.87;8.37;;;1.30;99.90;;;;;;5078195;27;20455;-67
2023/03/01 05:47:55;;;;;;;9.63;7.90;;;1.30;99.90;;;;;;5086363;28;20778;-68
2023/03/01 05:50:25;;;;;;;9.50;7.93;;;1.30;99.90;;;;;;5098989;28;20483;-68
2023/03/01 05:52:59;;;;;;;8.50;7.20;;;1.40;99.90;;;;;;5093404;28;20486;-68
2023/03/01 05:55:29;;;;;;;7.93;7.10;;;1.40;99.90;;;;;;5098022;27;20490;-66
2023/03/01 05:57:59;;;;;;;9.23;8.13;;;1.40;99.90;;;;;;5083095;28;20584;-67
2023/03/01 06:00:28;;;;;;;9.63;7.67;;;1.40;99.90;;;;;;5085976;27;20498;-67
2023/03/01 06:02:57;;;;;;;7.97;7.17;;;1.50;99.90;;;;;;5094576;28;20483;-67
2023/03/01 06:05:25;;;;;;;9.00;7.50;;;1.40;99.90;;;;;;5075537;27;20464;-67
2023/03/01 06:07:54;;;;;;;8.70;7.90;;;1.40;99.90;;;;;;5089274;27;20500;-67
2023/03/01 06:10:23;;;;;;;8.73;7.00;;;1.40;99.90;;;;;;5092052;28;20513;-66
2023/03/01 06:12:52;;;;;;;9.33;7.63;;;1.40;99.90;;;;;;5090087;28;20476;-68
2023/03/01 06:15:21;;;;;;;7.83;7.13;;;1.30;99.90;;;;;;5100066;28;20491;-67
2023/03/01 06:17:49;;;;;;;8.60;7.33;;;1.40;99.90;;;;;;5091422;28;20488;-67
2023/03/01 06:20:19;;;;;;;7.87;7.07;;;1.40;99.90;;;;;;5089268;28;20492;-68
2023/03/01 06:22:48;;;;;;;10.00;7.17;;;1.30;99.90;;;;;;5095726;28;21005;-67
2023/03/01 06:25:19;;;;;;;8.90;7.43;;;1.30;99.90;;;;;;5088484;28;20474;-67
2023/03/01 06:27:48;;;;;;;8.00;7.03;;;1.30;99.90;;;;;;5077337;28;20484;-67
2023/03/01 06:30:20;;;;;;;8.60;7.60;;;1.30;99.90;;;;;;5073918;28;20484;-67
2023/03/01 06:32:48;;;;;;;8.03;7.00;;;1.30;99.90;;;;;;5089761;28;20561;-67
2023/03/01 06:35:18;;;;;;;9.17;7.63;;;1.30;99.90;;;;;;5087077;28;20867;-67
2023/03/01 06:37:47;;;;;;;11.10;8.00;;;1.30;99.90;;;;;;5084185;28;20579;-67
2023/03/01 06:40:15;;;;;;;8.33;7.07;;;1.30;99.90;;;;;;5097131;28;20484;-67
2023/03/01 06:42:48;;;;;;;11.90;8.17;;;1.30;99.90;;;;;;5086010;28;20476;-67
2023/03/01 06:45:20;;;;;;;9.00;7.20;;;1.40;99.90;;;;;;5088027;27;20460;-67
2023/03/01 06:47:48;;;;;;;9.50;7.40;;;1.40;99.90;;;;;;5077800;28;20492;-68
2023/03/01 06:50:17;;;;;;;11.40;8.10;;;1.40;99.90;;;;;;5086170;28;20484;-67
2023/03/01 06:52:46;;;;;;;15.83;7.80;;;1.50;99.90;;;;;;5083609;28;20468;-66
2023/03/01 06:55:13;;;;;;;9.07;7.07;;;1.50;99.90;;;;;;5080147;28;20624;-66
2023/03/01 06:57:41;;;;;;;8.83;8.03;;;1.60;99.90;;;;;;5088046;28;20487;-67
2023/03/01 07:00:10;;;;;;;14.87;7.30;;;1.60;99.90;;;;;;5092220;28;20506;-67
2023/03/01 07:02:39;;;;;;;7.80;7.00;;;1.60;99.90;;;;;;5096105;28;20469;-66
2023/03/01 07:05:08;;;;;;;9.40;7.17;;;1.60;99.90;;;;;;5079084;27;20463;-66
2023/03/01 07:07:36;;;;;;;7.80;7.00;;;1.60;99.90;;;;;;5078894;28;22029;-67
2023/03/01 07:10:05;;;;;;;9.73;6.60;;;1.70;99.90;;;;;;5081610;27;20955;-68
2023/03/01 07:12:33;;;;;;;6.57;5.97;;;1.70;99.90;;;;;;5073620;28;21271;-66
2023/03/01 07:15:01;;;;;;;9.10;6.07;;;1.80;99.90;;;;;;5086966;27;20494;-67
2023/03/01 07:17:29;;;;;;;7.30;6.53;;;1.80;99.90;;;;;;5077994;28;20495;-67
2023/03/01 07:19:58;;;;;;;9.07;7.00;;;1.90;99.90;;;;;;5080163;28;21039;-67
2023/03/01 07:22:26;;;;;;;9.00;7.90;;;1.90;99.90;;;;;;5087340;28;20494;-67
2023/03/01 07:24:54;;;;;;;7.93;7.10;;;1.90;99.90;;;;;;5063526;28;20612;-68
2023/03/01 07:27:22;;;;;;;10.17;7.07;;;2.00;99.90;;;;;;5079315;28;20499;-67
2023/03/01 07:29:50;;;;;;;8.17;6.63;;;2.00;99.90;;;;;;5078593;28;20963;-68
2023/03/01 07:32:18;;;;;;;7.70;6.90;;;2.10;99.90;;;;;;5091085;28;20495;-66
2023/03/01 07:34:46;;;;;;;7.47;6.70;;;2.10;99.90;;;;;;5093645;28;20492;-67
2023/03/01 07:37:16;;;;;;;9.20;7.03;;;2.10;99.90;;;;;;5080162;28;20491;-67
2023/03/01 07:39:44;;;;;;;7.87;7.10;;;2.20;99.90;;;;;;5075276;28;20474;-67
2023/03/01 07:42:12;;;;;;;10.77;7.70;;;2.20;99.90;;;;;;5079852;28;20486;-65
2023/03/01 07:44:40;;;;;;;8.50;7.37;;;2.20;99.90;;;;;;5068078;28;20893;-67
2023/03/01 07:47:08;;;;;;;9.67;7.70;;;2.20;99.90;;;;;;5062976;28;20495;-67
2023/03/01 07:49:36;;;;;;;9.90;8.90;;;2.30;99.90;;;;;;5072942;28;20883;-67
2023/03/01 07:52:04;;;;;;;9.27;8.03;;;2.30;99.90;;;;;;5068688;28;20566;-66
2023/03/01 07:54:33;;;;;;;11.83;9.20;;;2.30;99.90;;;;;;5073353;28;20484;-66
2023/03/01 07:57:01;;;;;;;13.00;9.43;;;2.40;99.90;;;;;;5078284;28;20515;-66
2023/03/01 07:59:29;;;;;;;11.83;10.10;;;2.50;99.90;;;;;;5083759;28;20983;-67
2023/03/01 08:01:58;;;;;;;13.83;10.10;;;2.50;99.90;;;;;;5088462;28;20759;-66
2023/03/01 08:04:26;;;;;;;12.23;10.93;;;2.60;99.90;;;;;;5088340;28;20467;-67
2023/03/01 08:06:54;;;;;;;12.37;11.07;;;2.70;99.90;;;;;;5089185;28;20908;-66
2023/03/01 08:09:22;;;;;;;14.23;10.77;;;2.70;99.90;;;;;;5096040;28;20970;-66
2023/03/01 08:11:52;;;;;;;13.00;11.67;;;2.80;99.90;;;;;;5091827;28;20491;-67
2023/03/01 08:14:20;;;;;;;14.10;12.60;;;2.80;99.90;;;;;;5090986;28;20559;-67
2023/03/01 08:16:50;;;;;;;14.07;12.57;;;2.90;99.90;;;;;;5094393;28;20488;-66
2023/03/01 08:19:18;;;;;;;15.77;14.07;;;2.90;99.90;;;;;;5096876;28;20559;-67
2023/03/01 08:21:46;;;;;;;15.67;13.90;;;2.90;99.90;;;;;;5089487;28;21104;-68
2023/03/01 08:24:14;;;;;;;15.00;13.47;;;3.00;99.90;;;;;;5091736;28;20468;-66
2023/03/01 08:26:42;;;;;;;15.00;13.40;;;3.00;99.90;;;;;;5093639;28;20472;-67
2023/03/01 08:29:11;;;;;;;15.67;14.07;;;3.10;99.90;;;;;;5093051;28;20468;-68
2023/03/01 08:31:40;;;;;;;17.33;14.63;;;3.10;99.90;;;;;;5093967;28;20490;-68
2023/03/01 08:34:10;;;;;;;18.20;15.43;;;3.20;99.90;;;;;;5093406;28;20995;-68
2023/03/01 08:36:40;;;;;;;17.33;15.10;;;3.20;99.90;;;;;;5083587;28;21102;-68
2023/03/01 08:39:10;;;;;;;17.80;15.67;;;3.30;99.90;;;;;;5085180;28;20479;-67
2023/03/01 08:41:39;;;;;;;17.67;15.00;;;3.40;99.90;;;;;;5080598;28;20495;-68
2023/03/01 08:44:07;;;;;;;15.77;14.17;;;3.40;99.90;;;;;;5092579;28;20518;-68
2023/03/01 08:46:38;;;;;;;16.80;14.57;;;3.50;99.90;;;;;;5095982;28;20472;-67
2023/03/01 08:49:07;;;;;;;16.73;14.93;;;3.50;99.90;;;;;;5090834;28;20459;-67
2023/03/01 08:51:37;;;;;;;17.27;15.03;;;3.60;99.90;;;;;;5077737;28;21551;-68
2023/03/01 08:54:05;;;;;;;16.33;14.43;;;3.70;99.90;;;;;;5084279;28;20554;-68
2023/03/01 08:56:34;;;;;;;17.57;15.40;;;3.70;99.90;;;;;;5080902;27;20480;-67
2023/03/01 08:59:02;;;;;;;17.03;15.27;;;3.80;99.90;;;;;;5089028;28;20475;-67
2023/03/01 09:01:30;;;;;;;17.73;15.67;;;3.80;99.90;;;;;;5080195;27;20518;-68
2023/03/01 09:04:00;;;;;;;18.70;16.53;;;3.80;99.90;;;;;;5100886;28;20838;-67
2023/03/01 09:06:30;;;;;;;17.57;15.77;;;3.90;99.90;;;;;;5086824;27;20463;-67
2023/03/01 09:08:59;;;;;;;20.30;14.87;;;3.90;99.90;;;;;;5080524;27;20555;-68
2023/03/01 09:11:27;;;;;;;15.63;14.00;;;4.00;99.90;;;;;;5078942;27;20485;-68
2023/03/01 09:13:55;;;;;;;16.83;14.70;;;4.00;99.90;;;;;;5087788;27;20817;-68
2023/03/01 09:16:25;;;;;;;16.37;13.90;;;4.10;99.90;;;;;;5079888;28;21114;-67
2023/03/01 09:18:54;;;;;;;17.20;14.77;;;4.10;99.90;;;;;;5082372;27;20463;-68
2023/03/01 09:21:24;;;;;;;16.03;14.40;;;4.10;99.90;;;;;;5083045;27;20499;-67
2023/03/01 09:24:07;;;;;;;16.90;15.13;;;4.10;99.90;;;;;;5079494;27;20552;-68
2023/03/01 09:26:35;;;;;;;17.40;15.53;;;4.20;99.90;;;;;;5083083;27;20568;-67
2023/03/01 09:29:03;;;;;;;15.97;14.47;;;4.20;99.90;;;;;;5086634;28;20471;-67
2023/03/01 09:31:31;;;;;;;16.27;14.67;;;4.30;99.90;;;;;;5081752;28;20503;-68
2023/03/01 09:33:59;;;;;;;17.03;14.90;;;4.30;99.90;;;;;;5101558;28;20478;-67
2023/03/01 09:36:29;;;;;;;16.70;15.00;;;4.40;99.90;;;;;;5095898;27;20496;-68
2023/03/01 09:38:59;;;;;;;17.33;13.93;;;4.40;99.90;;;;;;5083897;28;21028;-68
2023/03/01 09:41:47;;;;;;;16.40;14.67;;;4.50;99.90;;;;;;5083071;27;20528;-68
2023/03/01 09:44:22;;;;;;;16.30;14.47;;;4.50;99.90;;;;;;5094067;27;20858;-68
2023/03/01 09:46:51;;;;;;;15.63;14.03;;;4.60;99.90;;;;;;5086297;28;20488;-68
2023/03/01 09:49:22;;;;;;;15.10;13.60;;;4.60;99.90;;;;;;5084404;28;20523;-67
2023/03/01 09:51:57;;;;;;;16.53;13.90;;;4.70;99.90;;;;;;5081097;28;21036;-67
2023/03/01 09:54:25;;;;;;;16.70;13.53;;;4.70;99.90;;;;;;5082331;27;20482;-68
2023/03/01 09:57:05;;;;;;;15.60;14.03;;;4.80;99.90;;;;;;5078632;27;20487;-67
2023/03/01 09:59:45;;;;;;;16.50;14.20;;;4.90;99.90;;;;;;5085051;28;20471;-67
2023/03/01 10:02:25;;;;;;;15.17;13.50;;;4.90;99.90;;;;;;5083433;28;21259;-68
2023/03/01 10:04:58;;;;;;;15.30;13.70;;;5.00;99.90;;;;;;5093785;28;20475;-67
2023/03/01 10:07:39;;;;;;;16.87;14.33;;;5.10;99.90;;;;;;5099273;28;20488;-67
2023/03/01 10:10:08;;;;;;;15.33;13.20;;;5.10;99.90;;;;;;5101407;28;20488;-67
2023/03/01 10:12:41;;;;;;;15.13;12.73;;;5.20;99.90;;;;;;5098164;28;20467;-67
2023/03/01 10:15:15;;;;;;;13.87;11.47;;;5.20;99.90;;;;;;5099953;28;20459;-68
2023/03/01 10:17:47;;;;;;;13.83;12.07;;;5.20;99.90;;;;;;5100161;28;20494;-67
2023/03/01 10:20:22;;;;;;;12.90;10.90;;;5.30;99.90;;;;;;5098506;28;21039;-67
2023/03/01 10:22:54;;;;;;;13.10;11.70;;;5.30;99.90;;;;;;5099386;28;20460;-67
2023/03/01 10:25:41;;;;;;;12.57;11.27;;;5.30;99.90;;;;;;5100480;28;20463;-67
2023/03/01 10:28:18;;;;;;;13.30;11.23;;;5.30;99.90;;;;;;5097302;28;20523;-67
2023/03/01 10:30:46;;;;;;;14.53;12.40;;;5.40;99.90;;;;;;5099092;28;20484;-67
2023/03/01 10:33:19;;;;;;;14.37;12.47;;;5.40;99.90;;;;;;5094367;28;20545;-67
2023/03/01 10:35:48;;;;;;;13.40;12.00;;;5.50;99.90;;;;;;5090194;27;21187;-67
2023/03/01 10:38:20;;;;;;;12.70;11.00;;;5.60;99.90;;;;;;5078582;27;20483;-68
2023/03/01 10:40:53;;;;;;;15.80;12.13;;;5.70;99.90;;;;;;5078191;27;21599;-68
2023/03/01 10:43:22;;;;;;;13.40;11.17;;;5.80;99.90;;;;;;5089190;27;20484;-67
2023/03/01 10:45:50;;;;;;;14.70;12.77;;;5.90;99.90;;;;;;5077852;28;20467;-68
2023/03/01 10:48:23;;;;;;;13.73;12.33;;;6.00;99.90;;;;;;5083631;28;20622;-68
2023/03/01 10:51:04;;;;;;;15.23;12.57;;;6.10;99.90;;;;;;5087609;27;20511;-67
2023/03/01 10:53:36;;;;;;;14.50;12.03;;;6.30;99.90;;;;;;5082146;28;20482;-67
2023/03/01 10:56:06;;;;;;;14.90;12.50;;;6.40;99.90;;;;;;5079128;28;20476;-68
2023/03/01 10:58:35;;;;;;;16.20;12.53;;;6.50;99.90;;;;;;5081572;28;21244;-68
2023/03/01 11:01:06;;;;;;;14.73;11.80;;;6.60;99.90;;;;;;5077472;27;20490;-68
2023/03/01 11:03:35;;;;;;;15.43;11.63;;;6.60;99.90;;;;;;5085536;28;21211;-67
2023/03/01 11:06:07;;;;;;;12.70;11.40;;;6.70;99.90;;;;;;5097481;28;21058;-67
2023/03/01 11:08:42;;;;;;;11.57;10.37;;;6.80;99.90;;;;;;5090188;28;21021;-67
2023/03/01 11:11:30;;;;;;;12.33;11.00;;;6.90;99.90;;;;;;5095423;28;21085;-68
2023/03/01 11:14:01;;;;;;;12.40;10.40;;;7.00;99.90;;;;;;5081367;27;20503;-68
2023/03/01 11:16:36;;;;;;;11.47;10.27;;;7.10;99.90;;;;;;5078869;27;20566;-68
2023/03/01 11:19:20;;;;;;;10.60;9.50;;;7.20;99.90;;;;;;5092312;28;20478;-68
2023/03/01 11:21:56;;;;;;;10.90;9.77;;;7.30;99.90;;;;;;5078561;28;20489;-67
2023/03/01 11:24:32;;;;;;;11.33;9.20;;;7.40;99.90;;;;;;5078819;28;20845;-68
2023/03/01 11:27:05;;;;;;;10.83;9.70;;;7.50;99.90;;;;;;5069178;28;20494;-68
2023/03/01 11:29:38;;;;;;;11.03;9.87;;;7.60;99.90;;;;;;5078584;28;20463;-66
2023/03/01 11:32:16;;;;;;;11.10;9.70;;;7.70;99.90;;;;;;5080775;28;20463;-66
2023/03/01 11:34:48;;;;;;;9.90;8.90;;;7.80;99.90;;;;;;5090334;28;20498;-66
2023/03/01 11:37:27;;;;;;;9.00;8.10;;;7.90;99.90;;;;;;5078723;28;21226;-67
2023/03/01 11:40:04;;;;;;;8.33;7.53;;;8.00;99.90;;;;;;5078908;28;20554;-66
2023/03/01 11:42:44;;;;;;;9.53;8.17;;;8.10;99.90;;;;;;5081192;28;20466;-68
2023/03/01 11:45:13;;;;;;;8.10;7.20;;;8.20;99.90;;;;;;5082641;28;20475;-66
2023/03/01 11:48:13;;;;;;;7.87;7.17;;;8.30;99.90;;;;;;5081511;28;21319;-66
2023/03/01 11:50:45;;;;;;;7.63;6.83;;;8.50;99.90;;;;;;5058514;28;20496;-66
2023/03/01 11:53:42;;;;;;;5.50;5.00;;;8.60;99.90;;;;;;5094250;28;20484;-65
2023/03/01 11:56:19;;;;;;;6.73;6.00;;;8.70;99.90;;;;;;5081640;28;20954;-66
2023/03/01 11:59:21;;;;;;;7.00;6.30;;;8.90;99.90;;;;;;5081020;28;20551;-65
2023/03/01 12:02:11;;;;;;;6.43;5.83;;;9.00;99.90;;;;;;5086753;28;20484;-67
2023/03/01 12:05:18;;;;;;;6.63;6.03;;;9.20;99.90;;;;;;5089250;28;20613;-67
2023/03/01 12:07:52;;;;;;;7.30;6.50;;;9.50;99.90;;;;;;5060327;28;20491;-66
2023/03/01 12:10:28;;;;;;;7.30;6.60;;;9.70;99.90;;;;;;5099165;28;20490;-67
2023/03/01 12:13:22;;;;;;;6.60;6.00;;;10.00;99.90;;;;;;5096425;28;20466;-67
2023/03/01 12:16:04;;;;;;;6.97;5.37;;;10.30;99.90;;;;;;5098594;28;20471;-66
2023/03/01 12:18:59;;;;;;;6.67;6.07;;;10.90;99.90;;;;;;5097955;28;20490;-68
2023/03/01 12:21:40;;;;;;;6.07;5.47;;;11.60;99.90;;;;;;5093622;28;22045;-68
2023/03/01 12:24:43;;;;;;;6.50;5.90;;;12.50;99.90;;;;;;5097282;28;20468;-68
2023/03/01 12:27:31;;;;;;;5.90;5.30;;;13.50;99.90;;;;;;5058242;28;20478;-66
2023/03/01 12:30:10;;;;;;;6.03;5.50;;;15.70;99.90;;;;;;5090133;27;20513;-68
2023/03/01 12:32:49;;;;;;;6.77;6.17;;;17.70;75.70;;;;;;5092986;27;20484;-68
2023/03/01 12:35:48;;;;;;;6.13;5.57;;;19.50;58.60;;;;;;5099913;27;21065;-68
2023/03/01 12:38:33;;;;;;;6.30;5.80;;;21.60;49.80;;;;;;5100113;28;20488;-68
2023/03/01 12:41:28;;;;;;;6.70;6.10;;;23.90;44.10;;;;;;5103940;28;20562;-67
2023/03/01 12:44:08;;;;;;;5.87;5.47;;;26.30;37.60;;;;;;5099033;27;20468;-67
2023/03/01 12:46:52;;;;;;;6.70;6.20;;;27.80;32.00;;;;;;5096474;27;20467;-67
2023/03/01 12:49:26;;;;;;;7.37;6.70;;;28.60;30.00;;;;;;5094258;27;20482;-65
2023/03/01 12:52:00;;;;;;;6.57;6.07;;;29.30;28.60;;;;;;5099715;27;20487;-65
2023/03/01 12:54:31;;;;;;;5.97;5.63;;;29.90;27.10;;;;;;5100040;27;20552;-66
2023/03/01 12:57:09;;;;;;;6.57;6.17;;;30.20;27.40;;;;;;5102300;28;20471;-67
2023/03/01 12:59:40;;;;;;;6.40;6.00;;;30.30;25.90;;;;;;5099781;28;20481;-66
2023/03/01 13:02:20;;;;;;;5.75;5.45;;;30.30;25.90;;;;;;5100438;28;20470;-67
2023/03/01 13:05:14;;;;;;;6.20;5.63;;;30.20;25.40;;;;;;5100292;27;20836;-66
2023/03/01 13:07:51;;;;;;;5.28;4.97;;;30.10;25.20;;;;;;5087582;27;20224;-68